Glendo, WY (82213)

5:42 PM MST on November 26, 2014 (GMT -0700)
RAWS CASPER PORTABLE WY US | Change Station
CLOSE
Current Station
Personal Weather Station
Location: Hartville, WY
Elevation: 4785 ft
Nearby Weather Stations

Elev 4785 ft 42.39 °N, 104.81 °W | Updated 41 minutes ago

Partly Cloudy
Partly Cloudy
26 °F
Feels Like 21 °F
N
4
Wind Variable Wind from SSE
Gusts 8.0 mph

Today
High -- | Low -- °F
--% Chance of Precip.
Yesterday
High -- | Low -- °F
Precip. -- in
7:04 AM 4:29 PM
Waxing Crescent, 24% visible
Pressure 30.20 in
Visibility 10.0 miles
Clouds Few 9500 ft
Windchill 21 °F
Dew Point 22 °F
Humidity 84%
Rainfall 0.13 in
Snow Depth Not available.
UV 0 out of 12
Pollen .10 out of 12
Air Quality Not available.
Flu Activity Not available.
METAR KDGW 262353Z AUTO 11007KT 10SM FEW095 M04/M06 A3020 RMK AO2 SLPNO T10391061 11006 21039 53008

More Conditions Fewer Conditions

Pressure 30.20 in
Visibility 10.0 miles
Clouds Few 9500 ft
Windchill 21 °F
Dew Point 22 °F
Humidity 84%
Rainfall 0.13 in
Snow Depth Not available.
UV 0 out of 12
Pollen .10 out of 12
Air Quality Not available.
Flu Activity Not available.
METAR KDGW 262353Z AUTO 11007KT 10SM FEW095 M04/M06 A3020 RMK AO2 SLPNO T10391061 11006 21039 53008

More Conditions Fewer Conditions

10-Day Weather Forecast

Almanac

Astronomy

Nov. 26, 2014 Rise Set
Actual Time
Civil Twilight
Nautical Twilight
Astronomical Twilight
Moon
Length of Visible Light
Length of Day
Tomorrow will be .
, % of the Moon is Illuminated

Today's Extremes

State Highs State Lows

Community

WunderPhotos

Upload Photos

1,773,930 photos uploaded!

WunderBlogs® & News

Nearby

Air Quality

  Air Quality AQ Index Pollutant
Not available.

Snow Depth

Station Depth Elevation

Earthquake Activity

City Distance Mag. Time & Date
Minimum magnitude displayed is 2.5.

Coastal Water Temperatures

Place Temperature

Nearby Weather Stations